Purcell, Oklahoma
Current Conditions -  °F | °C
As of 5:10 AM on Thursday 23 Oct 2014 (Local Time) from KOUN Reporting Station
Overcast Overcast  
Wind Chill: 59°   Ceiling: 6500
Heat Index: 59°   Visibility: 10mi
Dew Point: 59°   Wind: 9mph
Humidity: 100%   Direction: 150°SSE
Pressure: 30.11"   Gusts: NA
Location:  35.01°N, 97.36°W
Report Text: KOUN 231010Z AUTO 15008KT 10SM BKN065 BKN075 OVC110 15/15 A3011 RMK AO2 LTG DSNT NW
Loading
Personal Weather Stations






























Interactive Weather Map
Tropical Storm Tracking
New forecast layout! Learn more

10-Day Weather Forecast

Advertisements
Track Severe Weather on mobile